createdAt,value
2019-03-25T00:00:22.148Z,130.86
2019-03-25T00:01:22.482Z,130.93
2019-03-25T00:02:22.793Z,130.40
2019-03-25T00:03:23.153Z,130.44
2019-03-25T00:04:23.445Z,130.69
2019-03-25T00:05:23.811Z,130.78
2019-03-25T00:06:24.117Z,130.75
2019-03-25T00:07:24.540Z,131.00
2019-03-25T00:08:24.795Z,130.71
2019-03-25T00:09:25.075Z,131.23
2019-03-25T00:10:25.444Z,131.06
2019-03-25T00:11:25.771Z,130.91
2019-03-25T00:12:26.101Z,130.88
2019-03-25T00:13:26.472Z,130.79
2019-03-25T00:14:26.760Z,131.02
2019-03-25T00:15:27.136Z,130.92
2019-03-25T00:16:27.424Z,130.75
2019-03-25T00:17:27.758Z,130.74
2019-03-25T00:18:28.101Z,131.17
2019-03-25T00:19:28.407Z,130.73
2019-03-25T00:20:28.755Z,131.12
2019-03-25T00:21:29.063Z,131.05
2019-03-25T00:22:29.393Z,131.12
2019-03-25T00:23:29.769Z,131.50
2019-03-25T00:24:38.246Z,130.99
2019-03-25T00:25:31.460Z,130.99
2019-03-25T00:26:30.767Z,131.22
2019-03-25T00:27:31.074Z,131.05
2019-03-25T00:28:31.452Z,130.96
2019-03-25T00:29:45.402Z,130.59
2019-03-25T00:30:32.087Z,130.58
2019-03-25T00:31:32.462Z,130.93
2019-03-25T00:32:33.051Z,131.23
2019-03-25T00:33:33.089Z,131.31
2019-03-25T00:34:33.397Z,130.98
2019-03-25T00:35:33.740Z,131.03
2019-03-25T00:36:34.066Z,131.29
2019-03-25T00:37:34.375Z,131.11
2019-03-25T00:38:34.707Z,130.72
2019-03-25T00:39:35.039Z,131.17
2019-03-25T00:40:35.440Z,131.24
2019-03-25T00:41:35.686Z,130.84
2019-03-25T00:42:35.997Z,131.48
2019-03-25T00:43:36.356Z,131.03
2019-03-25T00:44:36.687Z,131.18
2019-03-25T00:45:37.006Z,130.95
2019-03-25T00:46:37.352Z,130.95
2019-03-25T00:47:37.687Z,131.29
2019-03-25T00:48:38.036Z,131.12
2019-03-25T00:49:38.334Z,131.02
2019-03-25T00:50:38.674Z,131.03
2019-03-25T00:51:39.016Z,130.53
2019-03-25T00:52:39.346Z,130.53
2019-03-25T00:53:39.699Z,131.07
2019-03-25T00:54:49.381Z,131.22
2019-03-25T00:55:41.315Z,130.84
2019-03-25T00:56:40.734Z,131.02
2019-03-25T00:57:40.969Z,130.86
2019-03-25T00:58:41.327Z,130.78
2019-03-25T00:59:41.661Z,131.10
2019-03-25T01:00:41.956Z,130.79
2019-03-25T01:01:42.308Z,131.00
2019-03-25T01:02:42.659Z,130.57
2019-03-25T01:03:43.017Z,130.93
2019-03-25T01:04:43.336Z,130.84
2019-03-25T01:05:43.692Z,130.70
2019-03-25T01:06:43.965Z,130.59
2019-03-25T01:07:44.298Z,131.10
2019-03-25T01:08:44.650Z,130.24
2019-03-25T01:09:44.960Z,130.88
2019-03-25T01:10:45.280Z,131.10
2019-03-25T01:11:49.125Z,131.10
2019-03-25T01:12:45.924Z,130.42
2019-03-25T01:13:46.403Z,130.89
2019-03-25T01:14:46.608Z,130.76
2019-03-25T01:15:46.922Z,131.31
2019-03-25T01:16:47.255Z,130.97
2019-03-25T01:17:47.566Z,130.39
2019-03-25T01:18:47.943Z,130.26
2019-03-25T01:19:48.264Z,130.73
2019-03-25T01:20:48.578Z,130.65
2019-03-25T01:21:48.988Z,131.00
2019-03-25T01:22:49.203Z,130.94
2019-03-25T01:23:49.569Z,130.75
2019-03-25T01:25:00.821Z,130.83
2019-03-25T01:25:51.213Z,130.92
2019-03-25T01:26:50.565Z,131.07
2019-03-25T01:27:50.869Z,130.58
2019-03-25T01:28:51.213Z,131.02
2019-03-25T01:29:51.597Z,130.65
2019-03-25T01:30:51.857Z,130.56
2019-03-25T01:31:52.211Z,130.32
2019-03-25T01:32:52.516Z,130.75
2019-03-25T01:33:52.861Z,131.09
2019-03-25T01:34:53.177Z,130.68
2019-03-25T01:35:53.518Z,130.76
2019-03-25T01:36:53.860Z,130.67
2019-03-25T01:37:54.212Z,130.82
2019-03-25T01:38:54.559Z,130.65
2019-03-25T01:39:54.823Z,131.10
2019-03-25T01:40:55.160Z,130.92
2019-03-25T01:41:55.506Z,130.73
2019-03-25T01:42:55.808Z,131.03
2019-03-25T01:43:56.165Z,131.26
2019-03-25T01:44:56.495Z,130.73
2019-03-25T01:45:56.796Z,131.08
2019-03-25T01:46:57.242Z,130.74
2019-03-25T01:47:57.461Z,105.69
2019-03-25T01:48:57.816Z,105.69
2019-03-25T01:49:58.169Z,105.69
2019-03-25T01:50:58.427Z,105.69
2019-03-25T01:51:58.792Z,105.69
2019-03-25T01:52:59.106Z,105.69
2019-03-25T01:53:59.440Z,105.69
2019-03-25T01:55:00.353Z,105.69
2019-03-25T01:56:00.091Z,105.69
2019-03-25T01:57:00.455Z,105.69
2019-03-25T01:58:00.765Z,105.69
2019-03-25T01:59:01.080Z,105.69
2019-03-25T02:00:01.460Z,105.69
2019-03-25T02:01:01.755Z,105.69
2019-03-25T02:02:02.084Z,105.69
2019-03-25T02:03:02.465Z,105.69
2019-03-25T02:04:02.720Z,105.69
2019-03-25T02:05:03.091Z,105.69
2019-03-25T02:06:03.390Z,105.69
2019-03-25T02:07:03.739Z,105.69
2019-03-25T02:08:04.035Z,105.69
2019-03-25T02:09:04.375Z,105.69
2019-03-25T02:10:04.769Z,105.69
2019-03-25T02:11:05.077Z,105.69
2019-03-25T02:12:05.365Z,105.69
2019-03-25T02:13:05.679Z,105.69
2019-03-25T02:14:06.024Z,105.69
2019-03-25T02:15:06.413Z,105.69
2019-03-25T02:16:06.694Z,105.69
2019-03-25T02:17:07.042Z,105.69
2019-03-25T02:18:07.345Z,105.69
2019-03-25T02:19:07.701Z,105.69
2019-03-25T02:20:08.155Z,105.69
2019-03-25T02:21:08.355Z,105.69
2019-03-25T02:22:08.938Z,105.69
2019-03-25T02:23:09.425Z,105.69
2019-03-25T02:24:09.335Z,105.69
2019-03-25T02:25:09.683Z,105.69
2019-03-25T02:26:10.007Z,105.69
2019-03-25T02:27:10.350Z,105.69
2019-03-25T02:28:10.771Z,105.69
2019-03-25T02:29:10.969Z,105.69
2019-03-25T02:30:11.333Z,105.69
2019-03-25T02:31:11.676Z,105.69
2019-03-25T02:32:12.005Z,105.69
2019-03-25T02:33:12.335Z,105.69
2019-03-25T02:34:12.655Z,105.69
2019-03-25T02:35:12.983Z,105.69
2019-03-25T02:36:13.377Z,105.69
2019-03-25T02:37:13.644Z,105.69
2019-03-25T02:38:13.962Z,105.69
2019-03-25T02:39:14.298Z,105.69
2019-03-25T02:40:14.660Z,105.69
2019-03-25T02:41:14.938Z,105.69
2019-03-25T02:42:15.297Z,105.69
2019-03-25T02:43:15.636Z,105.69
2019-03-25T02:44:15.994Z,105.69
2019-03-25T02:45:16.285Z,105.69
2019-03-25T02:46:16.619Z,105.69
2019-03-25T02:47:16.926Z,105.69
2019-03-25T02:48:17.249Z,105.69
2019-03-25T02:49:17.602Z,105.69
2019-03-25T02:50:17.933Z,105.69
2019-03-25T02:51:18.245Z,105.69
2019-03-25T02:52:18.595Z,105.69
2019-03-25T02:53:18.973Z,105.69
2019-03-25T02:54:19.273Z,105.69
2019-03-25T02:55:19.604Z,105.69
2019-03-25T02:56:19.900Z,105.69
2019-03-25T02:57:20.224Z,105.69
2019-03-25T02:58:20.555Z,105.69
2019-03-25T02:59:20.947Z,105.69
2019-03-25T03:00:21.257Z,105.69
2019-03-25T03:01:21.685Z,105.69
2019-03-25T03:02:21.873Z,105.69
2019-03-25T03:03:22.242Z,105.69
2019-03-25T03:04:22.628Z,105.69
2019-03-25T03:05:22.935Z,105.69
2019-03-25T03:06:23.245Z,105.69
2019-03-25T03:07:23.643Z,105.69
2019-03-25T03:08:23.934Z,105.69
2019-03-25T03:09:24.344Z,105.69
2019-03-25T03:10:24.581Z,105.69
2019-03-25T03:11:24.898Z,105.69
2019-03-25T03:12:25.218Z,105.69
2019-03-25T03:13:25.564Z,105.69
2019-03-25T03:14:25.870Z,105.69
2019-03-25T03:15:26.229Z,105.69
2019-03-25T03:16:26.562Z,105.69
2019-03-25T03:17:26.910Z,105.69
2019-03-25T03:18:27.206Z,105.69
2019-03-25T03:19:27.529Z,105.69
2019-03-25T03:20:27.856Z,105.69
2019-03-25T03:21:28.204Z,105.69
2019-03-25T03:22:28.530Z,105.69
2019-03-25T03:23:28.874Z,105.69
2019-03-25T03:24:29.183Z,105.69
2019-03-25T03:25:29.588Z,105.69
2019-03-25T03:26:29.852Z,105.69
2019-03-25T03:27:30.227Z,105.69
2019-03-25T03:28:30.531Z,105.69
2019-03-25T03:29:30.841Z,105.69
2019-03-25T03:30:31.181Z,105.69
2019-03-25T03:31:31.491Z,105.69
2019-03-25T03:32:31.822Z,105.69
2019-03-25T03:33:32.208Z,105.69
2019-03-25T03:34:32.618Z,105.69
2019-03-25T03:35:32.866Z,105.69
2019-03-25T03:36:33.146Z,105.69
2019-03-25T03:37:33.481Z,105.69
2019-03-25T03:38:33.846Z,105.69
2019-03-25T03:39:34.160Z,105.69
2019-03-25T03:40:34.505Z,105.69
2019-03-25T03:41:34.829Z,105.69
2019-03-25T03:42:35.286Z,105.69
2019-03-25T03:43:35.504Z,105.69
2019-03-25T03:44:35.821Z,105.69
2019-03-25T03:45:36.166Z,105.69
2019-03-25T03:46:36.469Z,105.69
2019-03-25T03:47:36.796Z,105.69
2019-03-25T03:48:37.157Z,105.69
2019-03-25T03:49:37.474Z,105.69
2019-03-25T03:50:37.868Z,105.69
2019-03-25T03:51:38.135Z,105.69
2019-03-25T03:52:38.451Z,105.69
2019-03-25T03:53:38.798Z,105.69
2019-03-25T03:54:39.126Z,105.69
2019-03-25T03:55:39.445Z,105.69
2019-03-25T03:56:39.797Z,105.69
2019-03-25T03:57:40.105Z,105.69
2019-03-25T03:58:40.460Z,105.69
2019-03-25T03:59:40.735Z,105.69
2019-03-25T04:00:41.095Z,105.69
2019-03-25T04:01:41.834Z,105.69
2019-03-25T04:02:41.983Z,105.69
2019-03-25T04:03:42.089Z,105.69
2019-03-25T04:04:42.416Z,105.69
2019-03-25T04:05:42.747Z,105.69
2019-03-25T04:06:43.146Z,105.69
2019-03-25T04:07:43.460Z,105.69
2019-03-25T04:08:43.772Z,105.69
2019-03-25T04:09:44.079Z,105.69
2019-03-25T04:10:44.410Z,105.69
2019-03-25T04:11:44.763Z,105.69
2019-03-25T04:12:45.063Z,105.69
2019-03-25T04:13:45.414Z,105.69
2019-03-25T04:14:45.731Z,105.69
2019-03-25T04:15:46.191Z,105.69
2019-03-25T04:16:46.399Z,105.69
2019-03-25T04:17:46.707Z,105.69
2019-03-25T04:18:47.051Z,105.69
2019-03-25T04:19:47.362Z,105.69
2019-03-25T04:20:47.698Z,105.69
2019-03-25T04:21:48.035Z,105.69
2019-03-25T04:22:48.368Z,105.69
2019-03-25T04:23:48.796Z,105.69
2019-03-25T04:24:49.003Z,105.69
2019-03-25T04:25:49.338Z,105.69
2019-03-25T04:26:49.659Z,105.69
2019-03-25T04:27:50.009Z,105.69
2019-03-25T04:28:50.343Z,105.69
2019-03-25T04:29:50.653Z,105.69
2019-03-25T04:30:50.985Z,105.69
2019-03-25T04:31:51.361Z,105.69
2019-03-25T04:32:51.823Z,105.69
2019-03-25T04:33:51.981Z,105.69
2019-03-25T04:34:52.295Z,105.69
2019-03-25T04:35:52.623Z,105.69
2019-03-25T04:36:52.984Z,105.69
2019-03-25T04:37:56.177Z,105.69
2019-03-25T04:38:53.615Z,105.69
2019-03-25T04:39:54.012Z,105.69
2019-03-25T04:40:54.301Z,105.69
2019-03-25T04:41:54.648Z,105.69
2019-03-25T04:42:54.954Z,105.69
2019-03-25T04:43:55.279Z,105.69
2019-03-25T04:44:55.582Z,105.69
2019-03-25T04:45:55.935Z,105.69
2019-03-25T04:46:56.282Z,105.69
2019-03-25T04:47:56.612Z,105.69
2019-03-25T04:48:57.040Z,105.69
2019-03-25T04:49:57.247Z,105.69
2019-03-25T04:50:57.582Z,105.69
2019-03-25T04:51:57.925Z,105.69
2019-03-25T04:52:58.249Z,105.69
2019-03-25T04:53:58.589Z,105.69
2019-03-25T04:54:58.876Z,105.69
2019-03-25T04:55:59.208Z,105.69
2019-03-25T04:56:59.722Z,105.69
2019-03-25T04:57:59.898Z,105.69
2019-03-25T04:59:00.238Z,105.69
2019-03-25T05:00:00.555Z,105.69
2019-03-25T05:01:05.841Z,105.69
2019-03-25T05:02:01.225Z,105.69
2019-03-25T05:03:01.558Z,105.69
2019-03-25T05:04:01.882Z,105.69
2019-03-25T05:05:02.283Z,105.69
2019-03-25T05:06:02.482Z,105.69
2019-03-25T05:07:02.873Z,105.69
2019-03-25T05:08:03.186Z,105.69
2019-03-25T05:09:03.519Z,105.69
2019-03-25T05:10:03.832Z,105.69
2019-03-25T05:11:04.158Z,105.69
2019-03-25T05:12:04.492Z,105.69
2019-03-25T05:13:04.883Z,105.69
2019-03-25T05:14:05.129Z,105.69
2019-03-25T05:15:05.468Z,105.69
2019-03-25T05:16:05.790Z,105.69
2019-03-25T05:17:06.122Z,105.69
2019-03-25T05:18:06.440Z,105.69
2019-03-25T05:19:06.788Z,105.69
2019-03-25T05:20:07.130Z,131.17
2019-03-25T05:21:07.480Z,131.14
2019-03-25T05:22:07.943Z,131.54
2019-03-25T05:23:08.114Z,130.75
2019-03-25T05:24:08.450Z,130.77
2019-03-25T05:25:08.793Z,131.40
2019-03-25T05:26:09.109Z,130.98
2019-03-25T05:27:09.460Z,130.63
2019-03-25T05:28:09.776Z,130.91
2019-03-25T05:29:10.094Z,131.57
2019-03-25T05:30:10.523Z,130.80
2019-03-25T05:31:10.767Z,131.02
2019-03-25T05:32:11.491Z,130.49
2019-03-25T05:33:11.427Z,131.06
2019-03-25T05:34:11.738Z,130.99
2019-03-25T05:35:12.084Z,130.95
2019-03-25T05:36:12.400Z,130.67
2019-03-25T05:37:12.755Z,130.59
2019-03-25T05:38:13.173Z,130.53
2019-03-25T05:39:13.372Z,131.09
2019-03-25T05:40:13.970Z,130.43
2019-03-25T05:41:14.052Z,131.06
2019-03-25T05:42:14.393Z,131.11
2019-03-25T05:43:14.716Z,131.08
2019-03-25T05:44:15.035Z,130.77
2019-03-25T05:45:15.365Z,130.86
2019-03-25T05:46:15.747Z,131.02
2019-03-25T05:47:16.031Z,130.95
2019-03-25T05:48:16.381Z,130.82
2019-03-25T05:49:16.700Z,130.74
2019-03-25T05:50:17.035Z,131.19
2019-03-25T05:51:17.333Z,130.94
2019-03-25T05:52:17.690Z,130.70
2019-03-25T05:53:18.018Z,131.14
2019-03-25T05:54:18.396Z,130.82
2019-03-25T05:55:18.705Z,131.00
2019-03-25T05:56:18.984Z,130.65
2019-03-25T05:57:19.334Z,131.00
2019-03-25T05:58:19.708Z,130.53
2019-03-25T05:59:19.993Z,131.63
2019-03-25T06:00:20.339Z,131.63
2019-03-25T06:01:20.651Z,131.40
2019-03-25T06:02:21.022Z,131.60
2019-03-25T06:03:21.443Z,131.15
2019-03-25T06:04:21.641Z,131.40
2019-03-25T06:05:21.988Z,131.44
2019-03-25T06:06:22.301Z,131.45
2019-03-25T06:07:22.648Z,131.47
2019-03-25T06:08:22.972Z,130.99
2019-03-25T06:09:23.292Z,131.89
2019-03-25T06:10:23.633Z,131.70
2019-03-25T06:11:24.035Z,131.75
2019-03-25T06:12:24.273Z,131.33
2019-03-25T06:13:24.626Z,130.98
2019-03-25T06:14:24.959Z,130.89
2019-03-25T06:15:25.301Z,131.02
2019-03-25T06:16:25.614Z,130.42
2019-03-25T06:17:25.957Z,130.86
2019-03-25T06:18:26.276Z,131.03
2019-03-25T06:19:26.669Z,130.86
2019-03-25T06:20:26.933Z,130.77
2019-03-25T06:21:27.255Z,130.61
2019-03-25T06:22:27.586Z,131.02
2019-03-25T06:23:27.938Z,130.82
2019-03-25T06:24:28.253Z,129.80
2019-03-25T06:25:28.612Z,130.13
2019-03-25T06:26:28.935Z,129.99
2019-03-25T06:27:29.315Z,130.38
2019-03-25T06:28:29.610Z,130.31
2019-03-25T06:29:31.944Z,130.58
2019-03-25T06:30:30.251Z,130.31
2019-03-25T06:31:30.595Z,130.62
2019-03-25T06:32:30.944Z,130.88
2019-03-25T06:33:31.290Z,131.32
2019-03-25T06:34:31.623Z,130.65
2019-03-25T06:35:31.962Z,131.42
2019-03-25T06:36:32.333Z,131.35
2019-03-25T06:37:32.592Z,131.45
2019-03-25T06:38:32.941Z,131.68
2019-03-25T06:39:33.264Z,131.86
2019-03-25T06:40:33.595Z,131.83
2019-03-25T06:41:33.895Z,131.07
2019-03-25T06:42:34.242Z,130.83
2019-03-25T06:43:34.611Z,131.59
2019-03-25T06:44:35.037Z,130.65
2019-03-25T06:45:35.256Z,131.05
2019-03-25T06:46:35.560Z,131.59
2019-03-25T06:47:35.913Z,131.89
2019-03-25T06:48:36.246Z,132.04
2019-03-25T06:49:36.575Z,131.81
2019-03-25T06:50:36.919Z,131.54
2019-03-25T06:51:37.232Z,131.80
2019-03-25T06:52:37.630Z,131.76
2019-03-25T06:53:37.893Z,131.57
2019-03-25T06:54:38.220Z,131.64
2019-03-25T06:55:38.556Z,131.32
2019-03-25T06:56:38.868Z,130.79
2019-03-25T06:57:39.182Z,131.34
2019-03-25T06:58:39.545Z,130.96
2019-03-25T06:59:39.885Z,130.89
2019-03-25T07:00:40.299Z,131.17
2019-03-25T07:01:40.517Z,130.93
2019-03-25T07:02:40.858Z,131.55
2019-03-25T07:03:41.185Z,131.56
2019-03-25T07:04:41.515Z,131.74
2019-03-25T07:05:41.857Z,131.12
2019-03-25T07:06:42.171Z,131.17
2019-03-25T07:07:42.500Z,131.31
2019-03-25T07:08:42.926Z,131.66
2019-03-25T07:09:43.158Z,131.58
2019-03-25T07:10:43.515Z,131.57
2019-03-25T07:11:43.823Z,131.25
2019-03-25T07:12:44.154Z,131.35
2019-03-25T07:13:44.514Z,131.42
2019-03-25T07:14:44.823Z,131.40
2019-03-25T07:15:45.150Z,131.43
2019-03-25T07:16:45.490Z,131.08
2019-03-25T07:17:45.956Z,131.29
2019-03-25T07:18:46.407Z,131.57
2019-03-25T07:19:46.492Z,131.28
2019-03-25T07:20:46.795Z,131.25
2019-03-25T07:21:47.142Z,131.49
2019-03-25T07:22:47.489Z,131.49
2019-03-25T07:23:47.831Z,131.19
2019-03-25T07:24:48.150Z,131.40
2019-03-25T07:25:48.604Z,130.66
2019-03-25T07:26:48.837Z,131.36
2019-03-25T07:27:49.167Z,131.33
2019-03-25T07:28:49.510Z,130.74
2019-03-25T07:29:49.833Z,130.95
2019-03-25T07:30:50.157Z,130.59
2019-03-25T07:31:50.477Z,130.85
2019-03-25T07:32:50.834Z,130.72
2019-03-25T07:33:51.261Z,130.53
2019-03-25T07:34:51.483Z,130.60
2019-03-25T07:35:51.812Z,130.82
2019-03-25T07:36:52.170Z,131.21
2019-03-25T07:37:52.456Z,131.26
2019-03-25T07:38:52.822Z,131.14
2019-03-25T07:39:53.141Z,131.31
2019-03-25T07:40:53.466Z,131.10
2019-03-25T07:41:53.873Z,130.91
2019-03-25T07:42:54.074Z,130.90
2019-03-25T07:43:54.454Z,130.86
2019-03-25T07:44:54.829Z,131.19
2019-03-25T07:45:55.123Z,130.92
2019-03-25T07:46:55.473Z,105.69
2019-03-25T07:47:55.784Z,105.69
2019-03-25T07:48:56.134Z,105.69
2019-03-25T07:49:56.474Z,105.69
2019-03-25T07:50:56.861Z,105.69
2019-03-25T07:51:57.125Z,105.69
2019-03-25T07:52:57.438Z,105.69
2019-03-25T07:53:57.794Z,105.69
2019-03-25T07:54:58.119Z,105.69
2019-03-25T07:55:58.434Z,105.69
2019-03-25T07:56:58.787Z,105.69
2019-03-25T07:57:59.098Z,105.69
2019-03-25T07:58:59.546Z,105.69
2019-03-25T07:59:59.782Z,105.69
2019-03-25T08:01:00.075Z,105.69
2019-03-25T08:02:00.423Z,105.69
2019-03-25T08:03:00.735Z,105.69
2019-03-25T08:04:01.092Z,105.69
2019-03-25T08:05:01.431Z,105.69
2019-03-25T08:06:01.730Z,105.69
2019-03-25T08:07:02.182Z,105.69
2019-03-25T08:08:02.392Z,105.69
2019-03-25T08:09:03.919Z,105.69
2019-03-25T08:10:03.126Z,105.69
2019-03-25T08:11:03.373Z,105.69
2019-03-25T08:12:03.772Z,105.69
2019-03-25T08:13:04.093Z,105.69
2019-03-25T08:14:04.430Z,105.69
2019-03-25T08:15:04.854Z,105.69
2019-03-25T08:16:05.022Z,105.69
2019-03-25T08:17:05.359Z,105.69
2019-03-25T08:18:05.690Z,105.69
2019-03-25T08:19:06.030Z,105.69
2019-03-25T08:20:06.376Z,105.69
2019-03-25T08:21:06.674Z,105.69
2019-03-25T08:22:07.027Z,105.69
2019-03-25T08:23:07.361Z,105.69
2019-03-25T08:24:07.712Z,105.69
2019-03-25T08:25:08.020Z,105.69
2019-03-25T08:26:08.335Z,105.69
2019-03-25T08:27:08.673Z,105.69
2019-03-25T08:28:08.977Z,105.69
2019-03-25T08:29:09.326Z,105.69
2019-03-25T08:30:09.681Z,105.69
2019-03-25T08:31:10.059Z,105.69
2019-03-25T08:32:10.466Z,105.69
2019-03-25T08:33:10.647Z,105.69
2019-03-25T08:34:10.991Z,105.69
2019-03-25T08:35:11.345Z,105.69
2019-03-25T08:36:11.687Z,105.69
2019-03-25T08:37:12.021Z,105.69
2019-03-25T08:38:12.325Z,105.69
2019-03-25T08:39:12.645Z,105.69
2019-03-25T08:40:13.189Z,105.69
2019-03-25T08:41:13.399Z,105.69
2019-03-25T08:42:13.737Z,105.69
2019-03-25T08:43:14.049Z,105.69
2019-03-25T08:44:14.369Z,105.69
2019-03-25T08:45:14.725Z,105.69
2019-03-25T08:46:15.049Z,105.69
2019-03-25T08:47:15.388Z,105.69
2019-03-25T08:48:15.786Z,105.69
2019-03-25T08:49:16.014Z,105.69
2019-03-25T08:50:16.353Z,105.69
2019-03-25T08:51:16.690Z,105.69
2019-03-25T08:52:17.026Z,105.69
2019-03-25T08:53:17.340Z,105.69
2019-03-25T08:54:17.673Z,105.69
2019-03-25T08:55:18.261Z,105.69
2019-03-25T08:56:18.348Z,105.69
2019-03-25T08:57:18.661Z,105.69
2019-03-25T08:58:18.985Z,105.69
2019-03-25T08:59:19.310Z,105.69
2019-03-25T09:00:19.669Z,105.69
2019-03-25T09:01:19.986Z,105.69
2019-03-25T09:02:20.314Z,105.69
2019-03-25T09:03:20.649Z,105.69
2019-03-25T09:04:21.240Z,105.69
2019-03-25T09:05:21.414Z,105.69
2019-03-25T09:06:21.643Z,105.69
2019-03-25T09:07:21.965Z,105.69
2019-03-25T09:08:22.294Z,105.69
2019-03-25T09:09:22.640Z,105.69
2019-03-25T09:10:22.986Z,105.69
2019-03-25T09:11:23.309Z,105.69
2019-03-25T09:12:23.650Z,105.69
2019-03-25T09:13:24.045Z,105.69
2019-03-25T09:14:24.283Z,105.69
2019-03-25T09:15:24.626Z,105.69
2019-03-25T09:16:24.946Z,105.69
2019-03-25T09:17:25.295Z,105.69
2019-03-25T09:18:25.595Z,105.69
2019-03-25T09:19:25.949Z,105.69
2019-03-25T09:20:26.309Z,105.69
2019-03-25T09:21:26.727Z,105.69
2019-03-25T09:22:26.955Z,105.69
2019-03-25T09:23:27.267Z,105.69
2019-03-25T09:24:27.585Z,131.90
2019-03-25T09:25:27.954Z,131.74
2019-03-25T09:26:28.268Z,131.03
2019-03-25T09:27:28.597Z,131.41
2019-03-25T09:28:28.917Z,131.52
2019-03-25T09:29:29.268Z,131.50
2019-03-25T09:30:29.573Z,131.53
2019-03-25T09:31:36.838Z,131.51
2019-03-25T09:32:31.259Z,131.89
2019-03-25T09:33:30.581Z,131.68
2019-03-25T09:34:30.897Z,132.11
2019-03-25T09:35:31.251Z,131.86
2019-03-25T09:36:31.570Z,132.20
2019-03-25T09:37:31.949Z,132.14
2019-03-25T09:38:32.266Z,131.50
2019-03-25T09:39:32.566Z,131.62
2019-03-25T09:40:32.903Z,131.58
2019-03-25T09:41:33.229Z,132.18
2019-03-25T09:42:33.549Z,131.80
2019-03-25T09:43:33.872Z,131.65
2019-03-25T09:44:34.202Z,132.27
2019-03-25T09:45:34.577Z,132.12
2019-03-25T09:46:34.979Z,132.07
2019-03-25T09:47:37.642Z,132.08
2019-03-25T09:48:35.530Z,132.16
2019-03-25T09:49:35.865Z,132.30
2019-03-25T09:50:36.210Z,131.57
2019-03-25T09:51:36.532Z,132.00
2019-03-25T09:52:38.665Z,131.94
2019-03-25T09:53:37.189Z,131.58
2019-03-25T09:54:37.660Z,131.99
2019-03-25T09:55:37.885Z,131.96
2019-03-25T09:56:38.214Z,132.22
2019-03-25T09:57:38.510Z,131.99
2019-03-25T09:58:38.876Z,132.30
2019-03-25T09:59:39.183Z,132.23
2019-03-25T10:00:39.534Z,131.89
2019-03-25T10:01:39.848Z,132.42
2019-03-25T10:02:40.208Z,131.85
2019-03-25T10:03:40.499Z,132.30
2019-03-25T10:04:40.835Z,132.26
2019-03-25T10:05:41.179Z,132.19
2019-03-25T10:06:41.502Z,132.14
2019-03-25T10:07:41.843Z,132.37
2019-03-25T10:08:42.170Z,132.09
2019-03-25T10:09:42.469Z,132.52
2019-03-25T10:10:42.886Z,132.09
2019-03-25T10:11:43.117Z,132.74
2019-03-25T10:12:43.479Z,132.15
2019-03-25T10:13:43.797Z,132.08
2019-03-25T10:14:44.102Z,131.71
2019-03-25T10:15:44.466Z,131.90
2019-03-25T10:16:44.803Z,131.83
2019-03-25T10:17:45.132Z,132.12
2019-03-25T10:18:45.492Z,132.34
2019-03-25T10:19:45.858Z,132.35
2019-03-25T10:20:46.131Z,132.33
2019-03-25T10:21:46.457Z,132.56
2019-03-25T10:22:46.795Z,132.48
2019-03-25T10:23:47.147Z,132.41
2019-03-25T10:24:47.446Z,132.11
2019-03-25T10:25:47.796Z,132.12
2019-03-25T10:26:48.095Z,132.62
2019-03-25T10:27:48.575Z,132.20
2019-03-25T10:28:49.315Z,132.72
2019-03-25T10:29:49.094Z,131.97
2019-03-25T10:30:49.428Z,132.13
2019-03-25T10:31:49.749Z,131.77
2019-03-25T10:32:50.095Z,132.45
2019-03-25T10:33:50.431Z,132.56
2019-03-25T10:34:50.979Z,131.97
2019-03-25T10:35:51.181Z,132.18
2019-03-25T10:36:51.387Z,132.37
2019-03-25T10:37:51.816Z,132.40
2019-03-25T10:38:52.076Z,131.85
2019-03-25T10:39:52.388Z,132.51
2019-03-25T10:40:52.728Z,132.14
2019-03-25T10:41:53.049Z,132.16
2019-03-25T10:42:53.371Z,131.89
2019-03-25T10:43:53.760Z,132.14
2019-03-25T10:44:54.036Z,132.20
2019-03-25T10:45:54.388Z,132.42
2019-03-25T10:46:54.698Z,132.54
2019-03-25T10:47:55.055Z,132.36
2019-03-25T10:48:55.407Z,132.29
2019-03-25T10:49:55.683Z,132.63
2019-03-25T10:50:56.032Z,132.29
2019-03-25T10:51:56.385Z,132.14
2019-03-25T10:52:56.754Z,132.13
2019-03-25T10:53:57.026Z,132.25
2019-03-25T10:55:57.701Z,131.97
2019-03-25T10:56:58.051Z,132.50
2019-03-25T10:57:58.386Z,132.69
2019-03-25T10:58:58.728Z,132.55
2019-03-25T10:59:59.049Z,132.06
2019-03-25T11:00:59.487Z,132.78
2019-03-25T11:01:59.709Z,132.28
2019-03-25T11:03:00.038Z,132.22
2019-03-25T11:04:00.377Z,132.47
2019-03-25T11:05:00.676Z,132.76
2019-03-25T11:06:01.017Z,132.40
2019-03-25T11:07:01.374Z,132.17
2019-03-25T11:08:01.681Z,132.65
2019-03-25T11:09:02.117Z,131.62
2019-03-25T11:10:02.320Z,133.05
2019-03-25T11:11:03.522Z,132.81
2019-03-25T11:12:03.046Z,132.56
2019-03-25T11:13:03.337Z,132.54
2019-03-25T11:14:03.671Z,132.75
2019-03-25T11:15:03.984Z,132.56
2019-03-25T11:16:04.300Z,132.30
2019-03-25T11:17:04.701Z,132.58
2019-03-25T11:18:05.802Z,132.44
2019-03-25T11:19:05.312Z,132.47
2019-03-25T11:20:05.623Z,132.23
2019-03-25T11:21:05.953Z,132.39
2019-03-25T11:22:06.285Z,131.83
2019-03-25T11:23:06.625Z,132.47
2019-03-25T11:24:06.959Z,131.80
2019-03-25T11:25:07.338Z,132.57
2019-03-25T11:26:07.577Z,132.44
2019-03-25T11:27:07.932Z,132.71
2019-03-25T11:28:08.241Z,132.46
2019-03-25T11:29:08.956Z,132.58
2019-03-25T11:30:08.909Z,132.36
2019-03-25T11:31:09.370Z,132.41
2019-03-25T11:32:09.590Z,131.65
2019-03-25T11:33:09.941Z,132.54
2019-03-25T11:34:10.292Z,132.76
2019-03-25T11:35:10.558Z,131.99
2019-03-25T11:36:10.879Z,132.13
2019-03-25T11:37:11.283Z,132.34
2019-03-25T11:38:11.555Z,132.23
2019-03-25T11:39:11.879Z,131.84
2019-03-25T11:40:12.213Z,132.36
2019-03-25T11:41:12.542Z,132.21
2019-03-25T11:42:12.985Z,133.15
2019-03-25T11:43:13.191Z,132.39
2019-03-25T11:44:13.536Z,132.95
2019-03-25T11:45:13.864Z,132.49
2019-03-25T11:46:14.193Z,132.51
2019-03-25T11:47:14.540Z,132.63
2019-03-25T11:48:14.865Z,133.12
2019-03-25T11:49:15.197Z,132.52
2019-03-25T11:50:15.611Z,132.46
2019-03-25T11:51:15.837Z,132.51
2019-03-25T11:52:16.178Z,132.32
2019-03-25T11:53:16.510Z,132.57
2019-03-25T11:54:16.816Z,132.26
2019-03-25T11:55:17.827Z,132.64
2019-03-25T11:56:17.490Z,132.52
2019-03-25T11:57:17.874Z,132.09
2019-03-25T11:58:18.203Z,132.00
2019-03-25T11:59:18.998Z,132.26
2019-03-25T12:00:18.796Z,132.50
2019-03-25T12:01:19.148Z,131.94
2019-03-25T12:02:19.500Z,132.46
2019-03-25T12:03:19.826Z,132.38
2019-03-25T12:04:20.145Z,131.74
2019-03-25T12:05:20.494Z,132.43
2019-03-25T12:06:20.865Z,132.00
2019-03-25T12:07:21.195Z,131.90
2019-03-25T12:08:21.505Z,132.63
2019-03-25T12:09:21.816Z,131.87
2019-03-25T12:10:22.162Z,132.38
2019-03-25T12:11:23.663Z,132.31
2019-03-25T12:12:22.809Z,131.96
2019-03-25T12:13:23.165Z,132.23
2019-03-25T12:14:23.495Z,132.30
2019-03-25T12:15:24.163Z,132.53
2019-03-25T12:16:24.108Z,132.67
2019-03-25T12:17:24.469Z,132.43
2019-03-25T12:18:24.821Z,131.86
2019-03-25T12:19:25.128Z,132.79
2019-03-25T12:20:25.476Z,132.50
2019-03-25T12:21:25.783Z,132.27
2019-03-25T12:22:26.136Z,132.44
2019-03-25T12:23:26.758Z,132.36
2019-03-25T12:24:26.783Z,133.00
2019-03-25T12:25:27.143Z,132.60
2019-03-25T12:26:27.444Z,132.16
2019-03-25T12:27:27.855Z,133.24
2019-03-25T12:28:28.121Z,133.32
2019-03-25T12:29:30.330Z,132.37
2019-03-25T12:30:28.787Z,132.36
2019-03-25T12:31:29.144Z,132.46
2019-03-25T12:32:29.425Z,132.55
2019-03-25T12:33:29.804Z,132.33